createdAt,value
2022-08-17T00:00:33.184Z,6.67
2022-08-17T00:03:06.141Z,7.20
2022-08-17T00:05:40.449Z,7.57
2022-08-17T00:08:11.383Z,6.83
2022-08-17T00:10:42.591Z,7.10
2022-08-17T00:13:16.339Z,6.70
2022-08-17T00:15:47.277Z,6.50
2022-08-17T00:19:01.719Z,6.50
2022-08-17T00:20:51.375Z,6.30
2022-08-17T00:23:22.296Z,6.20
2022-08-17T00:25:53.798Z,6.40
2022-08-17T00:28:25.310Z,6.30
2022-08-17T00:30:56.722Z,6.40
2022-08-17T00:33:30.237Z,5.97
2022-08-17T00:36:02.721Z,6.43
2022-08-17T00:38:33.833Z,6.30
2022-08-17T00:41:07.202Z,5.87
2022-08-17T00:43:40.600Z,5.87
2022-08-17T00:46:13.733Z,6.07
2022-08-17T00:48:45.248Z,5.70
2022-08-17T00:51:18.895Z,6.83
2022-08-17T00:53:52.869Z,6.93
2022-08-17T00:56:26.382Z,6.23
2022-08-17T00:58:57.602Z,6.00
2022-08-17T01:01:28.619Z,5.80
2022-08-17T01:03:59.985Z,5.03
2022-08-17T01:06:31.293Z,5.53
2022-08-17T01:09:03.722Z,5.70
2022-08-17T01:11:36.713Z,6.67
2022-08-17T01:14:07.950Z,6.20
2022-08-17T01:16:39.639Z,6.30
2022-08-17T01:19:13.316Z,6.10
2022-08-17T01:21:47.452Z,6.00
2022-08-17T01:24:18.561Z,5.27
2022-08-17T01:26:50.118Z,5.73
2022-08-17T01:29:22.234Z,6.57
2022-08-17T01:31:56.138Z,6.00
2022-08-17T01:34:28.204Z,6.37
2022-08-17T01:36:59.773Z,6.47
2022-08-17T01:39:33.265Z,6.10
2022-08-17T01:42:08.615Z,5.77
2022-08-17T01:44:41.244Z,5.73
2022-08-17T01:47:12.056Z,6.33
2022-08-17T01:49:43.434Z,7.00
2022-08-17T01:52:15.389Z,6.30
2022-08-17T01:54:48.341Z,6.40
2022-08-17T01:57:19.427Z,6.73
2022-08-17T01:59:50.025Z,6.57
2022-08-17T02:02:30.793Z,6.30
2022-08-17T02:04:53.384Z,6.50
2022-08-17T02:07:26.056Z,6.30
2022-08-17T02:09:56.753Z,6.27
2022-08-17T02:12:38.324Z,6.47
2022-08-17T02:14:59.930Z,6.97
2022-08-17T02:17:31.108Z,7.03
2022-08-17T02:20:01.786Z,6.73
2022-08-17T02:22:32.867Z,7.07
2022-08-17T02:25:05.020Z,7.57
2022-08-17T02:27:35.661Z,6.57
2022-08-17T02:31:00.789Z,7.00
2022-08-17T02:32:40.609Z,6.67
2022-08-17T02:35:13.661Z,7.13
2022-08-17T02:37:44.346Z,6.77
2022-08-17T02:40:17.038Z,6.80
2022-08-17T02:42:49.807Z,7.60
2022-08-17T02:45:23.661Z,7.03
2022-08-17T02:47:55.086Z,6.50
2022-08-17T02:50:27.015Z,6.77
2022-08-17T02:53:02.286Z,6.40
2022-08-17T02:55:32.872Z,6.00
2022-08-17T02:58:03.895Z,6.50
2022-08-17T03:00:36.467Z,6.50
2022-08-17T03:03:08.886Z,6.33
2022-08-17T03:05:40.823Z,6.07
2022-08-17T03:08:13.303Z,7.30
2022-08-17T03:10:44.491Z,6.40
2022-08-17T03:13:15.766Z,7.23
2022-08-17T03:15:48.814Z,7.37
2022-08-17T03:18:25.653Z,7.33
2022-08-17T03:20:55.635Z,6.33
2022-08-17T03:23:27.471Z,6.50
2022-08-17T03:25:58.501Z,6.53
2022-08-17T03:28:29.697Z,6.57
2022-08-17T03:31:00.289Z,7.30
2022-08-17T03:33:31.005Z,6.60
2022-08-17T03:36:01.825Z,6.33
2022-08-17T03:38:38.996Z,7.00
2022-08-17T03:41:07.852Z,6.43
2022-08-17T03:43:38.454Z,6.60
2022-08-17T03:46:35.113Z,6.80
2022-08-17T03:49:17.217Z,6.60
2022-08-17T03:52:05.321Z,7.77
2022-08-17T03:55:05.923Z,7.10
2022-08-17T03:57:36.955Z,7.10
2022-08-17T04:00:10.480Z,7.37
2022-08-17T04:02:42.778Z,6.87
2022-08-17T04:05:15.201Z,7.10
2022-08-17T04:07:46.293Z,7.30
2022-08-17T04:10:17.006Z,6.77
2022-08-17T04:12:50.747Z,7.37
2022-08-17T04:15:22.640Z,6.33
2022-08-17T04:17:53.804Z,6.33
2022-08-17T04:20:25.978Z,6.10
2022-08-17T04:23:03.041Z,6.37
2022-08-17T04:25:37.680Z,7.07
2022-08-17T04:28:15.794Z,7.47
2022-08-17T04:30:41.901Z,7.70
2022-08-17T04:33:14.604Z,7.53
2022-08-17T04:35:49.154Z,7.50
2022-08-17T04:38:22.516Z,7.47
2022-08-17T04:41:11.977Z,6.97
2022-08-17T04:46:41.984Z,7.67
2022-08-17T04:49:13.767Z,6.80
2022-08-17T04:51:55.682Z,6.73
2022-08-17T04:56:58.449Z,7.40
2022-08-17T04:59:29.285Z,7.67
2022-08-17T05:02:00.120Z,7.37
2022-08-17T05:04:34.432Z,6.93
2022-08-17T05:07:03.327Z,6.97
2022-08-17T05:09:34.213Z,7.10
2022-08-17T05:12:06.237Z,7.20
2022-08-17T05:14:36.918Z,7.67
2022-08-17T05:17:11.291Z,7.10
2022-08-17T05:19:41.356Z,7.33
2022-08-17T05:22:12.266Z,7.67
2022-08-17T05:24:43.558Z,7.97
2022-08-17T05:27:18.871Z,6.90
2022-08-17T05:29:47.892Z,7.17
2022-08-17T05:32:38.735Z,7.27
2022-08-17T05:34:52.578Z,6.87
2022-08-17T05:37:24.495Z,6.60
2022-08-17T05:39:56.375Z,7.40
2022-08-17T05:42:27.122Z,7.30
2022-08-17T05:45:00.787Z,6.87
2022-08-17T05:47:33.046Z,6.43
2022-08-17T05:50:09.441Z,7.27
2022-08-17T05:52:41.397Z,6.27
2022-08-17T05:55:17.659Z,6.90
2022-08-17T05:57:57.088Z,6.93
2022-08-17T06:00:31.289Z,6.27
2022-08-17T06:03:24.408Z,6.53
2022-08-17T06:06:03.423Z,6.57
2022-08-17T06:08:38.424Z,6.93
2022-08-17T06:11:14.193Z,6.60
2022-08-17T06:14:13.643Z,6.93
2022-08-17T06:16:47.895Z,7.60
2022-08-17T06:19:21.065Z,6.87
2022-08-17T06:21:54.898Z,6.43
2022-08-17T06:24:30.245Z,6.80
2022-08-17T06:27:05.374Z,6.23
2022-08-17T06:29:41.246Z,6.03
2022-08-17T06:32:13.693Z,5.93
2022-08-17T06:34:46.678Z,6.20
2022-08-17T06:40:22.730Z,6.13
2022-08-17T06:43:05.792Z,5.47
2022-08-17T06:45:32.168Z,5.80
2022-08-17T06:48:06.685Z,5.87
2022-08-17T06:50:40.818Z,6.10
2022-08-17T06:53:16.660Z,5.23
2022-08-17T06:55:50.215Z,6.10
2022-08-17T06:58:23.954Z,5.90
2022-08-17T07:00:59.332Z,5.80
2022-08-17T07:03:38.062Z,6.43
2022-08-17T07:06:12.386Z,6.40
2022-08-17T07:08:51.315Z,6.27
2022-08-17T07:14:15.205Z,5.90
2022-08-17T07:16:46.897Z,6.23
2022-08-17T07:19:19.712Z,5.90
2022-08-17T07:21:55.236Z,7.00
2022-08-17T07:24:35.633Z,6.90
2022-08-17T07:27:18.721Z,6.50
2022-08-17T07:32:34.384Z,6.73
2022-08-17T07:35:15.203Z,6.20
2022-08-17T07:37:49.495Z,6.43
2022-08-17T07:40:27.244Z,6.57
2022-08-17T07:43:11.437Z,6.93
2022-08-17T07:46:10.780Z,6.23
2022-08-17T07:48:44.519Z,6.43
2022-08-17T07:51:21.257Z,6.23
2022-08-17T07:53:51.977Z,5.80
2022-08-17T07:56:39.216Z,5.70
2022-08-17T07:59:14.491Z,6.37
2022-08-17T08:07:08.144Z,5.40
2022-08-17T08:09:45.216Z,5.67
2022-08-17T08:12:33.538Z,6.10
2022-08-17T08:15:11.174Z,9.57
2022-08-17T08:17:52.943Z,5.33
2022-08-17T08:20:47.656Z,6.07
2022-08-17T08:25:53.329Z,6.17
2022-08-17T08:28:25.314Z,5.53
2022-08-17T08:30:59.305Z,4.90
2022-08-17T08:33:43.827Z,5.00
2022-08-17T08:37:12.719Z,4.97
2022-08-17T08:38:57.843Z,4.60
2022-08-17T08:41:38.696Z,4.90
2022-08-17T08:44:18.136Z,4.97
2022-08-17T08:52:48.363Z,4.93
2022-08-17T08:55:26.758Z,5.40
2022-08-17T08:58:00.765Z,4.57
2022-08-17T09:00:35.331Z,4.60
2022-08-17T09:03:31.757Z,4.62
2022-08-17T09:06:33.257Z,4.53
2022-08-17T09:08:47.812Z,4.70
2022-08-17T09:11:22.559Z,4.00
2022-08-17T09:13:57.714Z,5.12
2022-08-17T09:16:33.633Z,4.62
2022-08-17T09:19:08.548Z,4.97
2022-08-17T09:21:48.675Z,5.10
2022-08-17T09:24:20.716Z,5.67
2022-08-17T09:29:35.483Z,4.75
2022-08-17T09:32:10.116Z,5.80
2022-08-17T09:34:49.831Z,5.10
2022-08-17T09:37:26.438Z,4.90
2022-08-17T09:40:05.801Z,4.42
2022-08-17T09:42:39.846Z,4.40
2022-08-17T09:45:17.685Z,4.97
2022-08-17T09:47:54.957Z,4.15
2022-08-17T09:51:05.262Z,4.35
2022-08-17T09:53:01.650Z,4.53
2022-08-17T09:55:37.589Z,4.10
2022-08-17T09:58:11.345Z,5.30
2022-08-17T10:00:45.423Z,5.25
2022-08-17T10:03:23.070Z,5.47
2022-08-17T10:05:59.599Z,5.28
2022-08-17T10:08:38.521Z,6.00
2022-08-17T10:11:33.717Z,5.90
2022-08-17T10:14:03.131Z,5.00
2022-08-17T10:16:38.769Z,5.00
2022-08-17T10:22:32.759Z,4.70
2022-08-17T10:25:23.935Z,4.97
2022-08-17T10:30:30.363Z,5.50
2022-08-17T10:33:05.399Z,4.62
2022-08-17T10:35:41.321Z,4.85
2022-08-17T10:38:27.053Z,4.83
2022-08-17T10:41:01.101Z,4.40
2022-08-17T10:43:38.678Z,4.95
2022-08-17T10:46:29.999Z,5.17
2022-08-17T10:48:50.294Z,5.08
2022-08-17T10:51:39.500Z,4.65
2022-08-17T10:56:58.607Z,4.80
2022-08-17T10:59:51.352Z,4.40
2022-08-17T11:02:48.323Z,4.87
2022-08-17T11:05:32.757Z,4.53
2022-08-17T11:08:34.332Z,4.80
2022-08-17T11:11:21.712Z,4.65
2022-08-17T11:13:55.813Z,4.62
2022-08-17T11:16:37.835Z,4.85
2022-08-17T11:19:35.151Z,4.37
2022-08-17T11:22:22.331Z,4.67
2022-08-17T11:27:34.345Z,4.58
2022-08-17T11:30:08.366Z,4.40
2022-08-17T11:32:47.246Z,4.33
2022-08-17T11:35:40.668Z,4.47
2022-08-17T11:38:18.515Z,4.28
2022-08-17T11:41:03.851Z,4.12
2022-08-17T11:44:04.194Z,4.42
2022-08-17T11:47:00.460Z,4.45
2022-08-17T11:49:55.627Z,4.75
2022-08-17T11:56:04.558Z,4.15
2022-08-17T11:58:39.338Z,4.58
2022-08-17T12:01:13.739Z,4.62
2022-08-17T12:03:55.286Z,4.47
2022-08-17T12:09:25.169Z,4.08
2022-08-17T12:12:12.554Z,3.65
2022-08-17T12:15:07.922Z,3.75
2022-08-17T12:17:10.421Z,4.05
2022-08-17T12:19:43.948Z,3.95
2022-08-17T12:22:17.564Z,3.75
2022-08-17T12:27:46.125Z,3.95
2022-08-17T12:30:11.659Z,3.70
2022-08-17T12:32:44.858Z,3.85
2022-08-17T12:35:23.782Z,3.90
2022-08-17T12:37:57.836Z,3.33
2022-08-17T12:40:31.743Z,3.65
2022-08-17T12:43:06.448Z,3.35
2022-08-17T12:45:40.881Z,3.87
2022-08-17T12:48:13.479Z,3.22
2022-08-17T12:53:24.942Z,3.35
2022-08-17T12:55:57.631Z,4.03
2022-08-17T12:58:32.071Z,3.70
2022-08-17T13:01:05.584Z,3.35
2022-08-17T13:03:40.068Z,3.42
2022-08-17T13:06:14.565Z,3.42
2022-08-17T13:08:48.241Z,3.98
2022-08-17T13:11:24.751Z,3.52
2022-08-17T13:13:57.614Z,3.83
2022-08-17T13:16:30.799Z,3.80
2022-08-17T13:19:11.403Z,3.60
2022-08-17T13:24:37.990Z,4.28
2022-08-17T13:27:10.524Z,3.65
2022-08-17T13:29:44.493Z,3.83
2022-08-17T13:32:22.765Z,4.00
2022-08-17T13:35:14.237Z,4.37
2022-08-17T13:37:34.498Z,3.92
2022-08-17T13:40:26.845Z,4.10
2022-08-17T13:42:58.951Z,4.40
2022-08-17T13:48:37.198Z,4.17
2022-08-17T13:51:26.177Z,3.87
2022-08-17T13:54:10.291Z,4.10
2022-08-17T13:57:05.217Z,4.60
2022-08-17T13:59:52.993Z,4.37
2022-08-17T14:02:16.464Z,4.42
2022-08-17T14:07:34.659Z,4.83
2022-08-17T14:10:10.409Z,4.73
2022-08-17T14:12:43.016Z,5.10
2022-08-17T14:15:16.564Z,4.80
2022-08-17T14:17:49.308Z,5.00
2022-08-17T14:20:23.245Z,5.87
2022-08-17T14:22:56.386Z,5.60
2022-08-17T14:25:29.666Z,5.80
2022-08-17T14:28:00.893Z,6.17
2022-08-17T14:33:09.977Z,5.70
2022-08-17T14:35:41.605Z,6.03
2022-08-17T14:38:12.657Z,6.17
2022-08-17T14:40:44.102Z,6.17
2022-08-17T14:43:16.335Z,5.77
2022-08-17T14:45:50.957Z,6.03
2022-08-17T14:48:22.093Z,6.90
2022-08-17T14:50:52.974Z,6.57
2022-08-17T14:53:23.908Z,7.43
2022-08-17T14:55:54.796Z,7.57
2022-08-17T14:58:26.386Z,6.90
2022-08-17T15:00:57.337Z,6.57
2022-08-17T15:03:28.720Z,6.93
2022-08-17T15:05:59.812Z,7.13
2022-08-17T15:08:30.799Z,7.53
2022-08-17T15:11:02.404Z,7.23
2022-08-17T15:13:33.963Z,7.47
2022-08-17T15:16:06.111Z,7.70
2022-08-17T15:18:37.339Z,18.73
2022-08-17T15:21:10.682Z,7.90
2022-08-17T15:23:41.803Z,7.90
2022-08-17T15:26:14.575Z,7.90
2022-08-17T15:28:54.381Z,7.67
2022-08-17T15:31:18.381Z,8.20
2022-08-17T15:33:52.029Z,8.47
2022-08-17T15:36:22.955Z,8.10
2022-08-17T15:38:53.950Z,8.10
2022-08-17T15:41:24.613Z,7.43
2022-08-17T15:43:55.657Z,7.90
2022-08-17T15:46:27.780Z,6.87
2022-08-17T15:49:00.027Z,6.93
2022-08-17T15:51:32.593Z,7.37
2022-08-17T15:54:19.033Z,7.60
2022-08-17T15:56:38.811Z,8.17
2022-08-17T15:59:09.879Z,7.97
2022-08-17T16:03:15.378Z,8.03
2022-08-17T16:04:29.871Z,7.73
2022-08-17T16:06:46.717Z,8.13
2022-08-17T16:09:17.481Z,7.80
2022-08-17T16:11:52.010Z,8.43
2022-08-17T16:14:20.727Z,7.80
2022-08-17T16:16:51.884Z,7.73
2022-08-17T16:19:22.577Z,8.00
2022-08-17T16:21:53.259Z,7.17
2022-08-17T16:24:23.958Z,7.57
2022-08-17T16:26:55.662Z,6.93
2022-08-17T16:29:26.608Z,7.50
2022-08-17T16:31:58.480Z,6.77
2022-08-17T16:34:29.218Z,5.80
2022-08-17T16:37:00.031Z,5.83
2022-08-17T16:39:31.825Z,5.40
2022-08-17T16:42:03.143Z,5.50
2022-08-17T16:44:34.175Z,5.63
2022-08-17T16:47:06.474Z,5.80
2022-08-17T16:49:38.093Z,4.70
2022-08-17T16:52:11.363Z,4.23
2022-08-17T16:54:44.503Z,4.13
2022-08-17T16:57:17.795Z,3.60
2022-08-17T16:59:50.645Z,3.40
2022-08-17T17:02:32.563Z,3.50
2022-08-17T17:05:07.326Z,2.67
2022-08-17T17:08:09.200Z,2.40
2022-08-17T17:10:44.053Z,2.60
2022-08-17T17:13:17.881Z,2.67
2022-08-17T17:15:55.171Z,2.77
2022-08-17T17:18:30.416Z,2.53
2022-08-17T17:21:01.655Z,2.40
2022-08-17T17:23:41.756Z,2.60
2022-08-17T17:26:24.754Z,2.63
2022-08-17T17:29:05.081Z,2.53
2022-08-17T17:31:39.173Z,3.53
2022-08-17T17:34:13.930Z,3.10
2022-08-17T17:36:48.413Z,3.43
2022-08-17T17:39:22.249Z,4.10
2022-08-17T17:41:56.295Z,3.07
2022-08-17T17:44:29.688Z,2.70
2022-08-17T17:47:02.698Z,3.30
2022-08-17T17:49:37.210Z,2.50
2022-08-17T17:54:55.700Z,2.53
2022-08-17T17:57:32.703Z,2.20
2022-08-17T18:00:07.977Z,2.27
2022-08-17T18:02:52.178Z,2.67
2022-08-17T18:05:47.760Z,2.20
2022-08-17T18:08:34.179Z,2.30
2022-08-17T18:11:34.936Z,2.60
2022-08-17T18:14:12.861Z,2.47
2022-08-17T18:16:44.285Z,2.67
2022-08-17T18:19:18.901Z,3.13
2022-08-17T18:21:52.717Z,2.60
2022-08-17T18:24:34.669Z,2.07
2022-08-17T18:27:08.676Z,2.07
2022-08-17T18:32:40.251Z,2.60
2022-08-17T18:35:31.634Z,2.43
2022-08-17T18:38:22.025Z,2.50
2022-08-17T18:41:09.565Z,2.13
2022-08-17T18:43:53.288Z,2.10
2022-08-17T18:46:29.815Z,2.03
2022-08-17T18:49:03.686Z,1.93
2022-08-17T18:51:40.440Z,2.30
2022-08-17T18:54:20.635Z,2.30
2022-08-17T18:56:57.440Z,2.30
2022-08-17T18:59:35.760Z,2.43
2022-08-17T19:02:45.147Z,2.43
2022-08-17T19:05:15.261Z,2.27
2022-08-17T19:07:48.345Z,2.10
2022-08-17T19:10:27.994Z,2.37
2022-08-17T19:13:02.080Z,2.10
2022-08-17T19:18:16.544Z,2.20
2022-08-17T19:20:50.896Z,2.47
2022-08-17T19:26:06.389Z,3.00
2022-08-17T19:28:42.182Z,2.80
2022-08-17T19:31:18.249Z,3.50
2022-08-17T19:33:49.573Z,3.13
2022-08-17T19:36:28.609Z,3.87
2022-08-17T19:41:44.149Z,3.40
2022-08-17T19:44:27.938Z,3.40
2022-08-17T19:47:06.065Z,3.30
2022-08-17T19:49:41.860Z,3.37
2022-08-17T19:52:20.787Z,3.40
2022-08-17T19:54:55.713Z,2.80
2022-08-17T19:57:32.182Z,2.90
2022-08-17T20:00:07.113Z,3.37
2022-08-17T20:02:40.913Z,4.70
2022-08-17T20:05:14.606Z,4.00
2022-08-17T20:07:49.332Z,4.37
2022-08-17T20:10:24.504Z,3.83
2022-08-17T20:12:57.764Z,4.20
2022-08-17T20:15:31.308Z,16.10
2022-08-17T20:18:05.289Z,3.60
2022-08-17T20:20:40.611Z,3.73
2022-08-17T20:23:20.522Z,3.73
2022-08-17T20:28:35.433Z,3.50
2022-08-17T20:31:30.706Z,3.60
2022-08-17T20:34:00.946Z,3.97
2022-08-17T20:36:33.468Z,3.63
2022-08-17T20:39:04.614Z,3.80
2022-08-17T20:41:38.177Z,3.53
2022-08-17T20:44:08.928Z,3.70
2022-08-17T20:46:58.138Z,3.60
2022-08-17T20:52:14.220Z,3.50
2022-08-17T20:54:55.944Z,3.60
2022-08-17T20:57:49.099Z,3.37
2022-08-17T21:03:52.227Z,3.30
2022-08-17T21:06:25.959Z,3.27
2022-08-17T21:09:27.806Z,3.30
2022-08-17T21:12:04.435Z,3.43
2022-08-17T21:14:43.382Z,3.70
2022-08-17T21:20:27.857Z,4.03
2022-08-17T21:25:58.514Z,3.67
2022-08-17T21:28:34.223Z,3.50
2022-08-17T21:31:09.139Z,3.50
2022-08-17T21:33:41.581Z,3.33
2022-08-17T21:36:25.167Z,3.70
2022-08-17T21:39:06.598Z,3.80
2022-08-17T21:41:47.872Z,3.13
2022-08-17T21:44:29.126Z,3.27
2022-08-17T21:46:58.196Z,3.57
2022-08-17T21:49:29.750Z,3.30
2022-08-17T21:52:02.661Z,4.23
2022-08-17T21:54:36.441Z,3.67
2022-08-17T21:57:09.944Z,4.67
2022-08-17T21:59:42.061Z,3.53
2022-08-17T22:02:20.366Z,3.30
2022-08-17T22:05:00.428Z,3.03
2022-08-17T22:07:40.973Z,3.23
2022-08-17T22:10:30.002Z,3.33
2022-08-17T22:15:48.984Z,3.90
2022-08-17T22:18:22.856Z,3.73
2022-08-17T22:20:56.410Z,4.10
2022-08-17T22:24:07.928Z,3.80
2022-08-17T22:29:57.230Z,3.73
2022-08-17T22:32:42.840Z,3.60
2022-08-17T22:35:43.169Z,3.70
2022-08-17T22:38:34.340Z,3.43
2022-08-17T22:41:25.574Z,3.37
2022-08-17T22:43:58.491Z,3.50
2022-08-17T22:46:30.276Z,2.80
2022-08-17T22:49:02.048Z,2.70
2022-08-17T22:51:34.121Z,2.53
2022-08-17T22:54:24.312Z,2.70
2022-08-17T22:57:18.740Z,2.83
2022-08-17T22:59:51.773Z,2.83
2022-08-17T23:02:28.226Z,2.87
2022-08-17T23:05:19.014Z,2.67
2022-08-17T23:07:51.987Z,2.40
2022-08-17T23:10:23.077Z,2.10
2022-08-17T23:12:53.696Z,2.70
2022-08-17T23:15:26.144Z,2.00
2022-08-17T23:17:56.806Z,2.20
2022-08-17T23:20:27.416Z,1.70
2022-08-17T23:22:59.709Z,1.90
2022-08-17T23:25:32.390Z,1.77
2022-08-17T23:28:04.922Z,1.70
2022-08-17T23:30:39.451Z,1.60
2022-08-17T23:33:14.483Z,1.27
2022-08-17T23:35:45.456Z,1.30
2022-08-17T23:38:17.490Z,1.30
2022-08-17T23:40:48.220Z,1.10
2022-08-17T23:43:24.878Z,1.10
2022-08-17T23:45:52.051Z,1.03
2022-08-17T23:48:35.433Z,1.03
2022-08-17T23:50:55.511Z,1.20
2022-08-17T23:53:26.343Z,1.07
2022-08-17T23:56:03.923Z,1.37
2022-08-17T23:58:30.014Z,2.33
